createdAt,value
2022-12-01T00:00:17.791Z,74.48
2022-12-01T00:04:19.272Z,74.31
2022-12-01T00:08:20.752Z,74.43
2022-12-01T00:12:22.335Z,74.48
2022-12-01T00:16:24.001Z,74.74
2022-12-01T00:20:25.614Z,74.31
2022-12-01T00:24:27.194Z,73.65
2022-12-01T00:28:28.793Z,74.18
2022-12-01T00:32:31.016Z,74.53
2022-12-01T00:36:32.914Z,74.70
2022-12-01T00:40:34.509Z,74.70
2022-12-01T00:44:36.108Z,74.40
2022-12-01T00:48:38.825Z,75.72
2022-12-01T00:52:40.437Z,75.09
2022-12-01T00:56:42.107Z,75.13
2022-12-01T01:00:43.657Z,75.04
2022-12-01T01:04:45.214Z,75.27
2022-12-01T01:08:46.935Z,75.28
2022-12-01T01:12:48.455Z,75.33
2022-12-01T01:16:50.124Z,74.92
2022-12-01T01:21:03.835Z,74.82
2022-12-01T01:25:05.738Z,75.16
2022-12-01T01:29:07.827Z,75.16
2022-12-01T01:33:10.184Z,75.72
2022-12-01T01:37:11.611Z,74.72
2022-12-01T01:41:13.798Z,74.17
2022-12-01T01:45:24.390Z,74.33
2022-12-01T01:49:26.072Z,74.23
2022-12-01T01:53:27.911Z,74.10
2022-12-01T01:57:32.066Z,74.59
2022-12-01T02:01:33.894Z,74.18
2022-12-01T02:05:37.488Z,75.10
2022-12-01T02:09:39.135Z,75.28
2022-12-01T02:13:52.785Z,74.54
2022-12-01T02:18:06.986Z,74.42
2022-12-01T02:22:26.470Z,74.92
2022-12-01T02:26:49.537Z,74.78
2022-12-01T02:31:15.084Z,75.36
2022-12-01T02:35:19.981Z,76.14
2022-12-01T02:39:38.616Z,75.72
2022-12-01T02:43:53.420Z,75.14
2022-12-01T02:47:59.961Z,75.28
2022-12-01T02:52:04.615Z,75.41
2022-12-01T02:56:10.385Z,75.74
2022-12-01T03:00:13.692Z,75.85
2022-12-01T03:04:50.716Z,75.93
2022-12-01T03:09:04.154Z,75.04
2022-12-01T03:13:30.201Z,75.37
2022-12-01T03:17:44.963Z,75.55
2022-12-01T03:21:54.617Z,75.97
2022-12-01T03:25:59.345Z,75.95
2022-12-01T03:30:02.885Z,75.69
2022-12-01T03:34:17.887Z,76.20
2022-12-01T03:38:24.664Z,75.87
2022-12-01T03:42:33.551Z,76.15
2022-12-01T03:46:44.506Z,76.88
2022-12-01T03:50:59.978Z,76.55
2022-12-01T03:55:26.112Z,76.04
2022-12-01T03:59:29.957Z,75.91
2022-12-01T04:03:31.796Z,75.62
2022-12-01T04:07:33.804Z,75.50
2022-12-01T04:11:54.162Z,76.05
2022-12-01T04:15:55.742Z,75.77
2022-12-01T04:19:57.815Z,75.66
2022-12-01T04:24:01.640Z,75.50
2022-12-01T04:28:03.144Z,75.18
2022-12-01T04:32:05.174Z,75.22
2022-12-01T04:36:07.373Z,75.36
2022-12-01T04:40:09.952Z,75.73
2022-12-01T04:44:11.756Z,74.93
2022-12-01T04:48:13.455Z,75.62
2022-12-01T04:52:15.268Z,76.24
2022-12-01T04:56:17.099Z,76.19
2022-12-01T05:00:18.869Z,75.81
2022-12-01T05:04:20.503Z,75.93
2022-12-01T05:08:22.013Z,75.86
2022-12-01T05:12:23.744Z,75.73
2022-12-01T05:16:28.434Z,75.83
2022-12-01T05:20:48.621Z,75.79
2022-12-01T05:24:50.343Z,76.26
2022-12-01T05:28:51.923Z,76.20
2022-12-01T05:32:53.889Z,75.91
2022-12-01T05:36:55.373Z,75.98
2022-12-01T05:40:56.945Z,76.06
2022-12-01T05:44:58.507Z,75.29
2022-12-01T05:49:00.159Z,74.48
2022-12-01T05:53:01.654Z,74.91
2022-12-01T05:57:03.303Z,75.29
2022-12-01T06:01:07.093Z,75.25
2022-12-01T06:05:09.892Z,75.39
2022-12-01T06:09:11.423Z,76.02
2022-12-01T06:13:13.064Z,76.65
2022-12-01T06:17:14.742Z,76.36
2022-12-01T06:21:16.341Z,75.64
2022-12-01T06:25:18.007Z,74.55
2022-12-01T06:29:19.666Z,74.75
2022-12-01T06:33:21.240Z,74.55
2022-12-01T06:37:22.790Z,74.98
2022-12-01T06:41:24.283Z,74.25
2022-12-01T06:45:26.189Z,75.38
2022-12-01T06:49:27.758Z,75.74
2022-12-01T06:53:29.766Z,75.70
2022-12-01T06:57:51.871Z,74.68
2022-12-01T07:01:54.217Z,74.63
2022-12-01T07:06:00.644Z,74.17
2022-12-01T07:10:02.353Z,73.09
2022-12-01T07:14:37.551Z,73.66
2022-12-01T07:18:40.390Z,72.72
2022-12-01T07:22:43.046Z,73.60
2022-12-01T07:26:44.849Z,73.75
2022-12-01T07:30:46.500Z,73.07
2022-12-01T07:34:48.330Z,73.76
2022-12-01T07:38:50.116Z,73.65
2022-12-01T07:42:51.932Z,73.95
2022-12-01T07:46:54.510Z,73.63
2022-12-01T07:50:56.277Z,74.28
2022-12-01T07:54:57.868Z,74.33
2022-12-01T08:04:34.403Z,71.92
2022-12-01T08:08:45.784Z,72.18
2022-12-01T08:12:47.883Z,71.64
2022-12-01T08:16:49.549Z,72.69
2022-12-01T08:20:57.648Z,72.54
2022-12-01T08:25:24.144Z,72.88
2022-12-01T08:29:26.225Z,73.43
2022-12-01T08:33:29.037Z,73.95
2022-12-01T08:37:30.585Z,73.85
2022-12-01T08:41:32.090Z,74.38
2022-12-01T08:46:00.995Z,73.79
2022-12-01T08:50:04.912Z,72.25
2022-12-01T08:54:06.622Z,71.83
2022-12-01T08:58:08.227Z,73.34
2022-12-01T09:02:15.265Z,72.95
2022-12-01T09:06:20.887Z,72.06
2022-12-01T09:10:22.478Z,72.39
2022-12-01T09:14:24.401Z,73.27
2022-12-01T09:18:26.203Z,73.55
2022-12-01T09:22:27.731Z,74.77
2022-12-01T09:26:30.000Z,73.76
2022-12-01T09:30:31.856Z,72.97
2022-12-01T09:34:35.944Z,73.18
2022-12-01T09:38:39.114Z,74.25
2022-12-01T09:42:41.387Z,74.18
2022-12-01T09:46:48.446Z,74.30
2022-12-01T09:50:50.136Z,74.81
2022-12-01T09:54:55.061Z,73.33
2022-12-01T09:59:00.610Z,72.48
2022-12-01T10:03:29.728Z,73.27
2022-12-01T10:08:12.776Z,73.08
2022-12-01T10:13:04.103Z,72.14
2022-12-01T10:17:47.484Z,72.09
2022-12-01T10:22:11.236Z,70.87
2022-12-01T10:26:17.571Z,70.71
2022-12-01T10:30:23.433Z,70.49
2022-12-01T10:34:28.704Z,70.38
2022-12-01T10:38:36.685Z,70.52
2022-12-01T10:43:10.296Z,70.96
2022-12-01T10:48:03.319Z,69.97
2022-12-01T10:52:06.542Z,70.81
2022-12-01T10:56:22.727Z,71.04
2022-12-01T11:00:57.894Z,72.07
2022-12-01T11:04:59.693Z,73.04
2022-12-01T11:09:06.289Z,72.66
2022-12-01T11:13:37.222Z,73.22
2022-12-01T11:17:43.404Z,71.95
2022-12-01T11:22:24.768Z,71.14
2022-12-01T11:26:37.991Z,71.99
2022-12-01T11:31:10.022Z,71.63
2022-12-01T11:35:26.550Z,71.12
2022-12-01T11:39:39.980Z,70.97
2022-12-01T11:43:50.547Z,70.56
2022-12-01T11:48:30.112Z,70.41
2022-12-01T11:54:02.613Z,69.45
2022-12-01T11:58:06.066Z,70.20
2022-12-01T12:02:59.703Z,71.15
2022-12-01T12:07:46.672Z,71.32
2022-12-01T12:12:25.598Z,71.16
2022-12-01T12:16:47.622Z,70.25
2022-12-01T12:21:20.514Z,70.77
2022-12-01T12:26:01.643Z,70.97
2022-12-01T12:30:20.797Z,71.37
2022-12-01T12:34:49.496Z,70.87
2022-12-01T12:39:03.078Z,69.24
2022-12-01T12:43:23.722Z,69.59
2022-12-01T12:47:38.420Z,69.25
2022-12-01T12:51:46.418Z,69.27
2022-12-01T12:55:51.491Z,69.79
2022-12-01T13:00:13.767Z,69.65
2022-12-01T13:05:00.039Z,69.16
2022-12-01T13:15:20.741Z,67.83
2022-12-01T13:19:41.442Z,68.11
2022-12-01T13:24:33.183Z,69.86
2022-12-01T13:28:40.864Z,70.42
2022-12-01T13:33:04.851Z,69.96
2022-12-01T13:37:29.815Z,70.41
2022-12-01T13:41:38.489Z,69.14
2022-12-01T13:46:20.436Z,69.20
2022-12-01T13:50:39.024Z,69.40
2022-12-01T13:55:00.617Z,70.17
2022-12-01T13:59:02.706Z,69.73
2022-12-01T14:03:16.591Z,70.25
2022-12-01T14:07:38.113Z,69.88
2022-12-01T14:11:40.276Z,70.14
2022-12-01T14:15:43.133Z,70.35
2022-12-01T14:19:52.297Z,69.57
2022-12-01T14:24:02.190Z,69.52
2022-12-01T14:28:12.079Z,69.30
2022-12-01T14:32:17.296Z,70.15
2022-12-01T14:36:35.747Z,69.78
2022-12-01T14:40:37.497Z,70.00
2022-12-01T14:44:45.970Z,70.59
2022-12-01T14:48:48.038Z,70.92
2022-12-01T14:52:57.596Z,70.41
2022-12-01T14:57:06.885Z,70.82
2022-12-01T15:01:13.444Z,70.77
2022-12-01T15:05:20.761Z,70.33
2022-12-01T15:09:38.996Z,69.97
2022-12-01T15:13:43.614Z,70.90
2022-12-01T15:17:45.292Z,70.83
2022-12-01T15:21:46.799Z,70.60
2022-12-01T15:25:48.398Z,70.02
2022-12-01T15:29:50.285Z,70.43
2022-12-01T15:33:53.415Z,70.25
2022-12-01T15:37:58.116Z,70.14
2022-12-01T15:41:59.990Z,70.10
2022-12-01T15:46:11.503Z,69.80
2022-12-01T15:50:42.684Z,69.48
2022-12-01T15:54:49.846Z,68.56
2022-12-01T15:58:51.797Z,69.19
2022-12-01T16:02:56.238Z,69.42
2022-12-01T16:07:10.046Z,70.29
2022-12-01T16:11:16.717Z,69.23
2022-12-01T16:15:19.537Z,70.48
2022-12-01T16:19:26.357Z,70.75
2022-12-01T16:23:27.950Z,70.27
2022-12-01T16:27:31.672Z,70.71
2022-12-01T16:31:33.313Z,70.36
2022-12-01T16:35:35.145Z,71.35
2022-12-01T16:39:36.820Z,71.31
2022-12-01T16:43:38.594Z,70.73
2022-12-01T16:47:40.797Z,69.74
2022-12-01T16:51:55.512Z,69.34
2022-12-01T16:56:02.495Z,69.72
2022-12-01T17:00:04.831Z,69.13
2022-12-01T17:04:07.924Z,69.13
2022-12-01T17:08:09.922Z,68.73
2022-12-01T17:12:13.555Z,69.49
2022-12-01T17:16:18.425Z,69.86
2022-12-01T17:20:20.356Z,70.97
2022-12-01T17:24:22.439Z,69.47
2022-12-01T17:28:24.003Z,70.07
2022-12-01T17:32:26.871Z,69.00
2022-12-01T17:36:29.234Z,68.70
2022-12-01T17:40:31.023Z,68.88
2022-12-01T17:44:32.767Z,68.81
2022-12-01T17:48:39.050Z,68.73
2022-12-01T17:52:40.816Z,68.67
2022-12-01T17:56:43.569Z,68.93
2022-12-01T18:00:45.283Z,68.99
2022-12-01T18:04:46.983Z,68.91
2022-12-01T18:08:48.926Z,69.44
2022-12-01T18:12:50.637Z,68.42
2022-12-01T18:16:52.901Z,68.61
2022-12-01T18:20:54.712Z,68.70
2022-12-01T18:24:56.451Z,68.80
2022-12-01T18:29:04.913Z,68.83
2022-12-01T18:33:10.941Z,68.50
2022-12-01T18:37:12.722Z,68.25
2022-12-01T18:41:20.397Z,68.32
2022-12-01T18:45:22.285Z,68.08
2022-12-01T18:49:24.044Z,68.04
2022-12-01T18:53:25.712Z,68.22
2022-12-01T18:57:27.975Z,68.49
2022-12-01T19:01:33.047Z,68.50
2022-12-01T19:05:38.812Z,68.55
2022-12-01T19:09:40.934Z,68.68
2022-12-01T19:13:42.776Z,68.60
2022-12-01T19:17:44.704Z,68.66
2022-12-01T19:21:46.504Z,70.09
2022-12-01T19:25:48.802Z,68.73
2022-12-01T19:29:52.112Z,68.63
2022-12-01T19:33:54.954Z,68.95
2022-12-01T19:37:58.098Z,68.61
2022-12-01T19:41:59.797Z,69.24
2022-12-01T19:46:16.418Z,68.57
2022-12-01T19:50:19.373Z,69.14
2022-12-01T19:54:21.065Z,68.86
2022-12-01T19:58:24.859Z,68.98
2022-12-01T20:02:29.270Z,68.83
2022-12-01T20:06:33.333Z,68.42
2022-12-01T20:10:34.877Z,68.39
2022-12-01T20:14:36.495Z,68.66
2022-12-01T20:18:38.714Z,67.53
2022-12-01T20:22:40.201Z,68.06
2022-12-01T20:26:50.907Z,68.16
2022-12-01T20:30:52.678Z,67.95
2022-12-01T20:34:54.350Z,68.00
2022-12-01T20:38:56.387Z,67.28
2022-12-01T20:42:58.027Z,68.21
2022-12-01T20:47:16.620Z,67.63
2022-12-01T20:51:18.879Z,68.24
2022-12-01T20:55:20.791Z,68.13
2022-12-01T20:59:22.652Z,68.13
2022-12-01T21:03:41.960Z,68.07
2022-12-01T21:07:49.182Z,68.28
2022-12-01T21:17:53.664Z,68.82
2022-12-01T21:22:21.581Z,68.58
2022-12-01T21:32:22.997Z,69.00
2022-12-01T21:42:49.600Z,68.05
2022-12-01T21:46:56.293Z,68.98
2022-12-01T21:51:04.671Z,69.32
2022-12-01T21:55:33.033Z,69.62
2022-12-01T21:59:36.528Z,68.84
2022-12-01T22:03:44.962Z,69.31
2022-12-01T22:07:46.649Z,69.61
2022-12-01T22:11:52.886Z,70.19
2022-12-01T22:15:55.149Z,69.50
2022-12-01T22:20:20.659Z,70.04
2022-12-01T22:24:26.299Z,70.10
2022-12-01T22:28:27.728Z,70.38
2022-12-01T22:32:32.344Z,70.51
2022-12-01T22:36:34.500Z,71.10
2022-12-01T22:40:48.501Z,70.27
2022-12-01T22:44:50.230Z,70.29
2022-12-01T22:49:22.161Z,71.04
2022-12-01T22:53:29.357Z,69.86
2022-12-01T22:57:37.086Z,70.13
2022-12-01T23:01:46.858Z,69.52
2022-12-01T23:05:55.460Z,70.23
2022-12-01T23:10:04.349Z,70.90
2022-12-01T23:14:13.801Z,70.93
2022-12-01T23:18:20.016Z,70.54
2022-12-01T23:22:21.737Z,70.79
2022-12-01T23:26:23.381Z,70.96
2022-12-01T23:30:25.118Z,70.68
2022-12-01T23:34:26.577Z,70.91
2022-12-01T23:38:39.612Z,71.35
2022-12-01T23:42:42.125Z,70.93
2022-12-01T23:46:48.750Z,71.44
2022-12-01T23:50:59.196Z,70.86
2022-12-01T23:55:01.475Z,70.52
2022-12-01T23:59:03.075Z,70.71
